Tangail, Bangladesh
Current Conditions -  °F | °C
As of 12:20 AM on Tuesday 27 Jan 2015 (Local Time) from VGHS Reporting Station
Haze Haze  
Wind Chill: 68°   Ceiling: Unl
Heat Index: 68°   Visibility: 2.1mi
Dew Point: 55°   Wind: 0mph
Humidity: 64%   Direction: NA
Pressure: 29.97"   Gusts: NA
Location:  24.25°N, 89.92°E
Report Text: VGHS 261820Z 00000KT 3500 HZ NSC 20/13 Q1015 NOSIG
Loading
Personal Weather Stations






























Interactive Weather Map New forecast layout! Learn more

10-Day Weather Forecast

Advertisements
Track Severe Weather on mobile